createdAt,value
2022-11-27T00:02:53.631Z,16.3
2022-11-27T00:07:59.630Z,16.3
2022-11-27T00:13:05.721Z,16.3
2022-11-27T00:18:11.834Z,16.3
2022-11-27T00:23:17.902Z,16.3
2022-11-27T00:28:23.996Z,16.3
2022-11-27T00:33:30.084Z,16.3
2022-11-27T00:38:36.171Z,16.2
2022-11-27T00:43:42.256Z,16.2
2022-11-27T00:53:54.511Z,16.2
2022-11-27T00:59:00.537Z,16.2
2022-11-27T01:04:06.632Z,16.2
2022-11-27T01:09:12.719Z,16.2
2022-11-27T01:14:18.835Z,16.2
2022-11-27T01:19:25.001Z,16.2
2022-11-27T01:24:31.090Z,16.2
2022-11-27T01:29:37.172Z,16.2
2022-11-27T01:34:43.197Z,16.2
2022-11-27T01:39:49.299Z,16.2
2022-11-27T01:44:54.512Z,16.2
2022-11-27T01:50:00.474Z,16.2
2022-11-27T01:55:06.544Z,16.2
2022-11-27T02:00:12.655Z,16.2
2022-11-27T02:05:18.718Z,16.2
2022-11-27T02:10:24.864Z,16.2
2022-11-27T02:15:29.906Z,16.2
2022-11-27T02:20:36.055Z,16.2
2022-11-27T02:25:42.082Z,16.2
2022-11-27T02:30:48.181Z,16.2
2022-11-27T02:35:54.314Z,16.1
2022-11-27T02:41:00.366Z,16.2
2022-11-27T02:46:06.441Z,16.1
2022-11-27T02:51:12.532Z,16.2
2022-11-27T02:56:18.618Z,16.1
2022-11-27T03:01:24.723Z,16.1
2022-11-27T03:06:30.872Z,16.1
2022-11-27T03:11:36.909Z,16.1
2022-11-27T03:16:43.020Z,16.1
2022-11-27T03:21:49.137Z,16.1
2022-11-27T03:26:54.249Z,16.1
2022-11-27T03:32:00.265Z,16.1
2022-11-27T03:37:06.387Z,16.1
2022-11-27T03:42:12.526Z,16.1
2022-11-27T03:47:18.570Z,16.1
2022-11-27T03:52:24.616Z,16.1
2022-11-27T03:57:30.712Z,16.1
2022-11-27T04:07:42.886Z,16.1
2022-11-27T04:12:49.009Z,16.1
2022-11-27T04:17:54.108Z,16.1
2022-11-27T04:23:00.180Z,16.1
2022-11-27T04:28:06.309Z,16.1
2022-11-27T04:33:12.398Z,16
2022-11-27T04:38:18.452Z,16.1
2022-11-27T04:43:24.560Z,16
2022-11-27T04:48:30.637Z,16
2022-11-27T04:53:36.766Z,16
2022-11-27T04:58:42.846Z,16
2022-11-27T05:08:54.991Z,16
2022-11-27T05:14:01.124Z,16
2022-11-27T05:19:07.167Z,16
2022-11-27T05:24:13.307Z,16
2022-11-27T05:29:19.376Z,16
2022-11-27T05:34:25.437Z,16
2022-11-27T05:39:31.517Z,16
2022-11-27T05:44:37.638Z,16
2022-11-27T05:49:43.775Z,16
2022-11-27T05:54:49.853Z,15.9
2022-11-27T05:59:54.983Z,15.9
2022-11-27T06:05:00.985Z,15.9
2022-11-27T06:10:07.161Z,15.9
2022-11-27T06:15:13.165Z,15.9
2022-11-27T06:20:19.277Z,15.9
2022-11-27T06:25:25.424Z,15.9
2022-11-27T06:30:31.593Z,15.9
2022-11-27T06:35:37.592Z,15.9
2022-11-27T06:40:43.614Z,15.9
2022-11-27T06:45:49.701Z,15.9
2022-11-27T06:50:54.986Z,15.9
2022-11-27T06:56:00.929Z,15.9
2022-11-27T07:01:07.032Z,15.9
2022-11-27T07:06:13.148Z,15.9
2022-11-27T07:11:19.278Z,15.9
2022-11-27T07:16:25.398Z,15.9
2022-11-27T07:21:31.441Z,15.9
2022-11-27T07:26:37.468Z,15.9
2022-11-27T07:31:43.603Z,15.9
2022-11-27T07:36:49.684Z,15.9
2022-11-27T07:41:54.731Z,15.9
2022-11-27T07:47:00.922Z,15.9
2022-11-27T07:52:06.903Z,15.9
2022-11-27T07:57:13.021Z,15.9
2022-11-27T08:07:25.239Z,15.9
2022-11-27T08:12:31.344Z,15.9
2022-11-27T08:17:37.364Z,15.9
2022-11-27T08:22:43.463Z,15.9
2022-11-27T08:27:49.596Z,15.9
2022-11-27T08:32:55.659Z,15.9
2022-11-27T08:38:01.737Z,15.9
2022-11-27T08:43:07.874Z,15.9
2022-11-27T08:48:13.884Z,15.9
2022-11-27T08:53:20.030Z,15.9
2022-11-27T08:58:26.126Z,15.9
2022-11-27T09:03:32.156Z,15.9
2022-11-27T09:08:38.375Z,15.9
2022-11-27T09:13:44.456Z,15.9
2022-11-27T09:18:50.434Z,15.9
2022-11-27T09:23:56.669Z,15.9
2022-11-27T09:29:02.751Z,15.9
2022-11-27T09:34:08.838Z,15.9
2022-11-27T09:39:14.847Z,15.9
2022-11-27T09:44:20.878Z,15.9
2022-11-27T09:49:26.979Z,15.9
2022-11-27T09:54:33.074Z,15.9
2022-11-27T09:59:39.204Z,15.9
2022-11-27T10:04:45.323Z,15.9
2022-11-27T10:09:51.395Z,16
2022-11-27T10:14:56.420Z,16
2022-11-27T10:20:02.800Z,16
2022-11-27T10:25:08.791Z,16
2022-11-27T10:30:14.840Z,16
2022-11-27T10:35:20.810Z,16
2022-11-27T10:40:27.054Z,16
2022-11-27T10:45:33.175Z,16
2022-11-27T10:50:39.235Z,16
2022-11-27T10:55:45.310Z,16
2022-11-27T11:00:50.367Z,16.1
2022-11-27T11:05:56.530Z,16.1
2022-11-27T11:11:02.596Z,16.1
2022-11-27T11:16:08.716Z,16.1
2022-11-27T11:21:14.763Z,16.1
2022-11-27T11:26:20.847Z,16.1
2022-11-27T11:31:26.947Z,16.1
2022-11-27T11:36:32.967Z,16.1
2022-11-27T11:41:39.089Z,16.1
2022-11-27T11:46:45.087Z,16.1
2022-11-27T11:51:51.196Z,16.1
2022-11-27T11:56:57.364Z,16.1
2022-11-27T12:02:03.332Z,16.1
2022-11-27T12:07:09.433Z,16.2
2022-11-27T12:12:15.486Z,16.1
2022-11-27T12:17:21.742Z,16.1
2022-11-27T12:22:27.824Z,16.1
2022-11-27T12:27:33.922Z,16.1
2022-11-27T12:32:39.999Z,16.1
2022-11-27T12:37:46.144Z,16.1
2022-11-27T12:47:58.317Z,16.1
2022-11-27T12:53:04.226Z,16.1
2022-11-27T12:58:10.350Z,16.1
2022-11-27T13:03:16.482Z,16.1
2022-11-27T13:08:22.632Z,16.1
2022-11-27T13:13:28.743Z,16.1
2022-11-27T13:18:34.699Z,16.1
2022-11-27T13:23:40.770Z,16.1
2022-11-27T13:28:46.854Z,16.1
2022-11-27T13:33:52.918Z,16.1
2022-11-27T13:38:59.134Z,16.1
2022-11-27T13:44:05.106Z,16.1
2022-11-27T13:49:11.193Z,16.1
2022-11-27T13:54:17.280Z,16.1
2022-11-27T13:59:23.375Z,16
2022-11-27T14:04:29.459Z,16
2022-11-27T14:09:35.621Z,16
2022-11-27T14:14:41.758Z,16
2022-11-27T14:19:47.916Z,16
2022-11-27T14:24:54.071Z,16
2022-11-27T14:30:00.309Z,16
2022-11-27T14:35:06.412Z,16
2022-11-27T14:40:12.516Z,16
2022-11-27T14:45:18.742Z,16
2022-11-27T14:50:24.849Z,15.9
2022-11-27T14:55:30.967Z,15.9
2022-11-27T15:00:37.229Z,15.9
2022-11-27T15:05:43.275Z,15.9
2022-11-27T15:10:49.462Z,15.9
2022-11-27T15:15:55.682Z,15.9
2022-11-27T15:21:02.061Z,15.9
2022-11-27T15:26:08.214Z,15.9
2022-11-27T15:31:14.471Z,15.9
2022-11-27T15:36:20.735Z,15.9
2022-11-27T15:41:27.054Z,15.9
2022-11-27T15:46:33.261Z,15.9
2022-11-27T15:51:39.538Z,15.8
2022-11-27T15:56:45.850Z,15.8
2022-11-27T16:01:52.172Z,15.8
2022-11-27T16:06:58.437Z,15.8
2022-11-27T16:12:04.664Z,15.8
2022-11-27T16:17:10.853Z,15.8
2022-11-27T16:22:17.346Z,15.8
2022-11-27T16:27:23.796Z,15.8
2022-11-27T16:32:30.296Z,15.8
2022-11-27T16:37:36.890Z,15.8
2022-11-27T16:42:42.139Z,15.8
2022-11-27T16:47:48.226Z,15.8
2022-11-27T16:52:54.394Z,15.8
2022-11-27T16:58:00.401Z,15.8
2022-11-27T17:03:06.624Z,15.8
2022-11-27T17:08:12.607Z,15.8
2022-11-27T17:13:18.762Z,15.8
2022-11-27T17:18:24.807Z,15.8
2022-11-27T17:23:30.934Z,15.8
2022-11-27T17:28:37.050Z,15.8
2022-11-27T17:33:43.025Z,15.7
2022-11-27T17:38:49.141Z,15.7
2022-11-27T17:43:55.211Z,15.7
2022-11-27T17:49:01.303Z,15.7
2022-11-27T17:59:13.506Z,15.7
2022-11-27T18:04:19.559Z,15.7
2022-11-27T18:09:25.687Z,15.7
2022-11-27T18:14:31.746Z,15.7
2022-11-27T18:19:37.853Z,15.7
2022-11-27T18:24:43.925Z,15.7
2022-11-27T18:29:50.187Z,15.7
2022-11-27T18:34:56.205Z,15.7
2022-11-27T18:40:02.182Z,15.7
2022-11-27T18:45:08.273Z,15.7
2022-11-27T18:50:14.427Z,15.7
2022-11-27T18:55:20.669Z,15.7
2022-11-27T19:00:26.757Z,15.7
2022-11-27T19:05:32.884Z,15.7
2022-11-27T19:10:39.036Z,15.7
2022-11-27T19:15:45.177Z,15.7
2022-11-27T19:20:51.335Z,15.7
2022-11-27T19:25:57.546Z,15.7
2022-11-27T19:31:03.647Z,15.7
2022-11-27T19:36:09.780Z,15.7
2022-11-27T19:41:15.942Z,15.7
2022-11-27T19:46:22.084Z,15.7
2022-11-27T19:51:28.243Z,15.7
2022-11-27T19:56:34.510Z,15.7
2022-11-27T20:01:40.766Z,15.7
2022-11-27T20:06:47.032Z,15.7
2022-11-27T20:11:53.367Z,15.7
2022-11-27T20:16:59.594Z,15.6
2022-11-27T20:22:05.868Z,15.7
2022-11-27T20:27:12.109Z,15.6
2022-11-27T20:32:18.355Z,15.6
2022-11-27T20:37:24.624Z,15.6
2022-11-27T20:42:30.877Z,15.6
2022-11-27T20:47:37.149Z,15.6
2022-11-27T20:52:43.470Z,15.6
2022-11-27T20:57:49.683Z,15.6
2022-11-27T21:02:56.173Z,15.6
2022-11-27T21:08:02.617Z,15.6
2022-11-27T21:13:09.092Z,15.6
2022-11-27T21:18:15.565Z,15.6
2022-11-27T21:23:22.047Z,15.6
2022-11-27T21:28:28.549Z,15.6
2022-11-27T21:33:34.973Z,15.6
2022-11-27T21:38:41.447Z,15.6
2022-11-27T21:43:47.953Z,15.6
2022-11-27T21:48:54.377Z,15.6
2022-11-27T21:54:00.878Z,15.6
2022-11-27T21:59:07.401Z,15.6
2022-11-27T22:04:13.799Z,15.6
2022-11-27T22:09:20.854Z,15.6
2022-11-27T22:14:27.799Z,15.6
2022-11-27T22:19:34.811Z,15.6
2022-11-27T22:24:41.818Z,15.6
2022-11-27T22:29:48.815Z,15.6
2022-11-27T22:34:55.827Z,15.5
2022-11-27T22:40:02.828Z,15.6
2022-11-27T22:45:09.837Z,15.5
2022-11-27T22:50:16.841Z,15.5
2022-11-27T22:55:23.840Z,15.5
2022-11-27T23:00:30.862Z,15.5
2022-11-27T23:05:37.909Z,15.5
2022-11-27T23:10:44.907Z,15.5
2022-11-27T23:21:00.524Z,15.5
2022-11-27T23:26:08.355Z,15.5
2022-11-27T23:31:16.189Z,15.5
2022-11-27T23:36:24.009Z,15.5
2022-11-27T23:41:31.845Z,15.5
2022-11-27T23:46:39.661Z,15.5
2022-11-27T23:51:47.489Z,15.5
2022-11-27T23:56:55.321Z,15.5
